createdAt,value
2019-05-23T00:02:18.955Z,79.82
2019-05-23T00:08:26.032Z,79.37
2019-05-23T00:11:27.506Z,79.50
2019-05-23T00:14:17.997Z,79.42
2019-05-23T00:17:05.297Z,79.54
2019-05-23T00:20:06.843Z,79.67
2019-05-23T00:22:54.112Z,79.78
2019-05-23T00:28:47.360Z,80.09
2019-05-23T00:31:38.570Z,80.08
2019-05-23T00:34:25.713Z,80.33
2019-05-23T00:37:15.959Z,80.62
2019-05-23T00:40:02.940Z,80.90
2019-05-23T00:42:51.304Z,81.03
2019-05-23T00:45:38.332Z,81.12
2019-05-23T00:48:25.369Z,81.26
2019-05-23T00:51:12.138Z,81.30
2019-05-23T00:53:59.273Z,81.13
2019-05-23T00:56:46.373Z,81.08
2019-05-23T00:59:33.260Z,80.84
2019-05-23T01:02:20.376Z,80.98
2019-05-23T01:05:07.341Z,80.99
2019-05-23T01:07:54.060Z,81.09
2019-05-23T01:10:40.926Z,79.25
2019-05-23T01:13:27.676Z,79.92
2019-05-23T01:16:14.797Z,80.11
2019-05-23T01:19:01.681Z,78.56
2019-05-23T01:22:01.033Z,79.47
2019-05-23T01:24:48.309Z,79.76
2019-05-23T01:27:35.080Z,80.15
2019-05-23T01:30:30.230Z,80.47
2019-05-23T01:33:15.079Z,80.55
2019-05-23T01:36:02.882Z,78.94
2019-05-23T01:38:50.334Z,79.97
2019-05-23T01:41:37.234Z,78.81
2019-05-23T01:44:24.152Z,79.82
2019-05-23T01:47:13.214Z,78.11
2019-05-23T01:49:58.258Z,79.11
2019-05-23T01:52:45.517Z,79.66
2019-05-23T01:55:32.583Z,80.27
2019-05-23T01:58:19.824Z,80.74
2019-05-23T02:01:06.589Z,80.97
2019-05-23T02:03:53.929Z,80.99
2019-05-23T02:06:40.962Z,81.01
2019-05-23T02:09:28.073Z,80.80
2019-05-23T02:12:14.911Z,79.13
2019-05-23T02:15:02.065Z,79.85
2019-05-23T02:17:49.033Z,78.40
2019-05-23T02:20:36.252Z,79.38
2019-05-23T02:23:23.059Z,79.78
2019-05-23T02:26:10.321Z,80.14
2019-05-23T02:28:57.375Z,78.73
2019-05-23T02:31:44.655Z,79.88
2019-05-23T02:34:32.435Z,80.46
2019-05-23T02:37:28.855Z,80.83
2019-05-23T02:40:15.925Z,81.11
2019-05-23T02:43:03.292Z,81.34
2019-05-23T02:45:50.714Z,81.56
2019-05-23T02:48:44.774Z,81.90
2019-05-23T02:51:31.987Z,81.97
2019-05-23T02:54:19.712Z,81.87
2019-05-23T02:57:06.960Z,80.26
2019-05-23T02:59:53.743Z,80.96
2019-05-23T03:02:56.769Z,81.41
2019-05-23T03:05:43.955Z,81.85
2019-05-23T03:08:31.071Z,81.88
2019-05-23T03:11:31.013Z,81.83
2019-05-23T03:14:17.588Z,81.93
2019-05-23T03:17:04.996Z,81.93
2019-05-23T03:22:58.416Z,81.94
2019-05-23T03:26:00.819Z,81.96
2019-05-23T03:28:48.574Z,81.96
2019-05-23T03:31:35.712Z,82.01
2019-05-23T03:34:22.501Z,80.79
2019-05-23T03:37:09.405Z,81.40
2019-05-23T03:39:56.538Z,81.85
2019-05-23T03:42:43.259Z,81.88
2019-05-23T03:45:33.442Z,80.49
2019-05-23T03:48:23.275Z,81.16
2019-05-23T03:51:10.042Z,81.41
2019-05-23T03:53:57.233Z,81.70
2019-05-23T03:56:43.965Z,81.98
2019-05-23T04:02:39.774Z,82.44
2019-05-23T04:05:26.771Z,82.34
2019-05-23T04:08:13.851Z,82.31
2019-05-23T04:11:01.073Z,82.37
2019-05-23T04:13:48.319Z,82.37
2019-05-23T04:16:35.611Z,82.37
2019-05-23T04:19:22.813Z,82.46
2019-05-23T04:22:10.489Z,82.43
2019-05-23T04:25:01.679Z,82.26
2019-05-23T04:27:44.222Z,81.98
2019-05-23T04:30:31.423Z,81.82
2019-05-23T04:33:18.846Z,81.43
2019-05-23T04:36:06.513Z,81.36
2019-05-23T04:39:07.761Z,78.86
2019-05-23T04:41:54.741Z,79.64
2019-05-23T04:44:44.436Z,79.94
2019-05-23T04:47:28.809Z,80.15
2019-05-23T04:50:15.621Z,80.06
2019-05-23T04:53:02.807Z,80.02
2019-05-23T04:55:49.608Z,78.35
2019-05-23T04:58:36.251Z,79.13
2019-05-23T05:01:23.435Z,79.51
2019-05-23T05:04:10.350Z,79.33
2019-05-23T05:06:57.599Z,79.20
2019-05-23T05:09:44.509Z,79.11
2019-05-23T05:12:31.903Z,79.31
2019-05-23T05:15:19.361Z,79.13
2019-05-23T05:18:08.925Z,78.92
2019-05-23T05:20:56.501Z,79.04
2019-05-23T05:23:43.707Z,78.99
2019-05-23T05:26:30.933Z,79.42
2019-05-23T05:29:19.047Z,79.44
2019-05-23T05:32:06.199Z,78.95
2019-05-23T05:34:52.992Z,78.03
2019-05-23T05:37:40.518Z,77.31
2019-05-23T05:40:27.840Z,76.91
2019-05-23T05:43:14.751Z,76.54
2019-05-23T05:46:02.256Z,73.17
2019-05-23T05:49:03.706Z,74.14
2019-05-23T05:51:51.677Z,74.57
2019-05-23T05:54:39.037Z,73.71
2019-05-23T06:00:37.344Z,73.14
2019-05-23T06:03:24.236Z,72.04
2019-05-23T06:06:11.727Z,71.42
2019-05-23T06:09:03.702Z,71.20
2019-05-23T06:11:51.157Z,71.30
2019-05-23T06:14:38.114Z,71.33
2019-05-23T06:17:25.249Z,70.20
2019-05-23T06:20:11.991Z,69.31
2019-05-23T06:22:59.203Z,69.58
2019-05-23T06:25:49.384Z,69.24
2019-05-23T06:28:36.190Z,68.22
2019-05-23T06:31:23.331Z,67.75
2019-05-23T06:34:10.211Z,67.39
2019-05-23T06:36:56.974Z,66.57
2019-05-23T06:39:44.244Z,66.42
2019-05-23T06:42:31.937Z,65.85
2019-05-23T06:45:18.898Z,64.83
2019-05-23T06:48:05.998Z,64.50
2019-05-23T06:50:53.197Z,63.75
2019-05-23T06:53:40.389Z,58.76
2019-05-23T06:56:27.465Z,56.84
2019-05-23T06:59:14.789Z,58.66
2019-05-23T07:02:02.018Z,59.60
2019-05-23T07:04:49.431Z,59.44
2019-05-23T07:07:36.433Z,59.32
2019-05-23T07:10:24.631Z,55.51
2019-05-23T07:16:17.703Z,55.61
2019-05-23T07:19:04.494Z,51.94
2019-05-23T07:21:51.739Z,54.76
2019-05-23T07:24:55.188Z,56.87
2019-05-23T07:27:25.810Z,57.57
2019-05-23T07:30:24.679Z,57.58
2019-05-23T07:33:11.592Z,57.42
2019-05-23T07:35:58.355Z,57.83
2019-05-23T07:38:45.125Z,56.97
2019-05-23T07:41:32.561Z,57.25
2019-05-23T07:44:19.348Z,56.99
2019-05-23T07:47:06.083Z,56.75
2019-05-23T07:49:52.856Z,57.32
2019-05-23T07:52:39.578Z,56.66
2019-05-23T07:55:27.084Z,56.35
2019-05-23T07:58:14.392Z,56.63
2019-05-23T08:01:07.738Z,56.35
2019-05-23T08:03:54.534Z,56.22
2019-05-23T08:06:41.622Z,49.67
2019-05-23T08:09:30.016Z,52.95
2019-05-23T08:12:17.152Z,53.61
2019-05-23T08:15:04.100Z,53.58
2019-05-23T08:17:51.185Z,52.94
2019-05-23T08:20:38.351Z,53.46
2019-05-23T08:23:26.029Z,52.85
2019-05-23T08:26:13.341Z,47.53
2019-05-23T08:29:24.071Z,51.62
2019-05-23T08:31:47.491Z,52.47
2019-05-23T08:34:41.634Z,53.16
2019-05-23T08:37:21.709Z,53.93
2019-05-23T08:40:08.779Z,47.47
2019-05-23T08:42:56.043Z,50.47
2019-05-23T08:45:43.364Z,50.67
2019-05-23T08:48:31.587Z,51.91
2019-05-23T08:51:18.740Z,50.62
2019-05-23T08:54:05.735Z,50.24
2019-05-23T08:56:52.544Z,50.45
2019-05-23T08:59:39.764Z,51.25
2019-05-23T09:02:27.169Z,51.02
2019-05-23T09:05:14.012Z,49.85
2019-05-23T09:08:00.806Z,50.39
2019-05-23T09:10:48.440Z,49.07
2019-05-23T09:13:36.182Z,42.98
2019-05-23T09:16:22.977Z,46.55
2019-05-23T09:19:09.875Z,46.30
2019-05-23T09:22:06.421Z,46.51
2019-05-23T09:24:53.696Z,46.39
2019-05-23T09:27:40.850Z,45.79
2019-05-23T09:30:28.882Z,45.67
2019-05-23T09:33:15.659Z,45.18
2019-05-23T09:36:02.322Z,45.16
2019-05-23T09:38:49.165Z,44.41
2019-05-23T09:41:36.246Z,38.12
2019-05-23T09:44:24.243Z,40.45
2019-05-23T09:47:11.908Z,35.97
2019-05-23T09:49:59.453Z,35.37
2019-05-23T09:52:46.034Z,36.36
2019-05-23T09:55:33.168Z,39.31
2019-05-23T09:58:20.460Z,34.80
2019-05-23T10:01:07.246Z,39.05
2019-05-23T10:03:53.952Z,40.28
2019-05-23T10:06:41.288Z,42.04
2019-05-23T10:09:28.715Z,42.68
2019-05-23T10:12:15.730Z,42.67
2019-05-23T10:15:03.009Z,43.23
2019-05-23T10:17:49.588Z,41.71
2019-05-23T10:20:36.778Z,35.45
2019-05-23T10:23:23.770Z,39.22
2019-05-23T10:26:11.265Z,40.52
2019-05-23T10:28:57.935Z,40.64
2019-05-23T10:31:44.986Z,42.07
2019-05-23T10:34:31.897Z,42.69
2019-05-23T10:37:18.723Z,38.02
2019-05-23T10:40:05.779Z,40.77
2019-05-23T10:42:53.368Z,40.86
2019-05-23T10:45:40.953Z,41.97
2019-05-23T10:48:28.322Z,42.12
2019-05-23T10:51:15.264Z,42.05
2019-05-23T10:54:02.566Z,41.93
2019-05-23T10:56:49.393Z,42.43
2019-05-23T10:59:50.610Z,41.31
2019-05-23T11:02:37.626Z,40.51
2019-05-23T11:05:25.669Z,39.82
2019-05-23T11:08:12.393Z,40.71
2019-05-23T11:10:59.554Z,39.89
2019-05-23T11:13:46.706Z,40.61
2019-05-23T11:16:34.853Z,40.05
2019-05-23T11:19:22.479Z,40.44
2019-05-23T11:22:09.446Z,40.39
2019-05-23T11:24:56.100Z,39.64
2019-05-23T11:27:42.938Z,39.75
2019-05-23T11:30:32.686Z,34.76
2019-05-23T11:33:20.236Z,37.29
2019-05-23T11:36:07.057Z,35.48
2019-05-23T11:42:00.415Z,37.18
2019-05-23T11:45:06.063Z,37.46
2019-05-23T11:47:53.312Z,38.11
2019-05-23T11:50:40.450Z,38.62
2019-05-23T11:53:27.690Z,39.19
2019-05-23T11:56:15.119Z,39.34
2019-05-23T11:59:02.189Z,38.39
2019-05-23T12:01:57.688Z,37.63
2019-05-23T12:07:50.381Z,37.88
2019-05-23T12:10:37.696Z,37.46
2019-05-23T12:13:24.439Z,36.42
2019-05-23T12:16:11.830Z,37.21
2019-05-23T12:18:58.550Z,37.28
2019-05-23T12:21:45.304Z,32.36
2019-05-23T12:24:35.455Z,35.10
2019-05-23T12:27:20.048Z,36.29
2019-05-23T12:30:07.063Z,31.66
2019-05-23T12:32:54.376Z,34.25
2019-05-23T12:35:41.444Z,35.04
2019-05-23T12:38:28.268Z,35.09
2019-05-23T12:41:15.489Z,35.31
2019-05-23T12:44:03.005Z,35.54
2019-05-23T12:46:51.515Z,31.20
2019-05-23T12:49:38.864Z,33.50
2019-05-23T12:52:26.109Z,33.75
2019-05-23T12:55:28.054Z,34.18
2019-05-23T12:58:15.057Z,34.79
2019-05-23T13:01:01.968Z,34.05
2019-05-23T13:03:49.269Z,34.35
2019-05-23T13:06:35.977Z,33.67
2019-05-23T13:09:23.219Z,34.02
2019-05-23T13:12:10.398Z,32.90
2019-05-23T13:14:58.826Z,28.25
2019-05-23T13:17:43.959Z,30.60
2019-05-23T13:20:31.040Z,32.05
2019-05-23T13:23:21.112Z,31.55
2019-05-23T13:26:05.025Z,31.51
2019-05-23T13:28:52.179Z,31.38
2019-05-23T13:31:39.518Z,31.09
2019-05-23T13:34:26.198Z,32.00
2019-05-23T13:37:16.795Z,31.41
2019-05-23T13:40:00.508Z,31.67
2019-05-23T13:42:47.650Z,31.57
2019-05-23T13:45:34.382Z,30.86
2019-05-23T13:48:21.213Z,30.73
2019-05-23T13:51:08.508Z,31.29
2019-05-23T13:53:55.804Z,30.56
2019-05-23T13:56:47.343Z,31.16
2019-05-23T13:59:29.957Z,30.80
2019-05-23T14:02:17.131Z,31.39
2019-05-23T14:05:03.783Z,31.24
2019-05-23T14:07:50.928Z,31.44
2019-05-23T14:10:37.710Z,27.49
2019-05-23T14:13:25.658Z,29.59
2019-05-23T14:16:12.236Z,29.83
2019-05-23T14:18:59.462Z,30.26
2019-05-23T14:21:46.290Z,30.92
2019-05-23T14:24:37.293Z,28.41
2019-05-23T14:27:33.620Z,30.27
2019-05-23T14:30:38.539Z,30.92
2019-05-23T14:33:26.336Z,31.13
2019-05-23T14:36:32.491Z,30.92
2019-05-23T14:39:21.177Z,30.91
2019-05-23T14:42:08.770Z,28.41
2019-05-23T14:44:55.474Z,30.33
2019-05-23T14:47:42.948Z,29.84
2019-05-23T14:50:36.210Z,27.12
2019-05-23T14:53:23.095Z,28.36
2019-05-23T14:56:10.132Z,28.61
2019-05-23T14:58:56.905Z,28.00
2019-05-23T15:01:44.128Z,28.73
2019-05-23T15:04:31.277Z,27.98
2019-05-23T15:07:18.053Z,27.60
2019-05-23T15:10:07.995Z,26.83
2019-05-23T15:12:55.059Z,27.02
2019-05-23T15:15:42.678Z,26.72
2019-05-23T15:18:30.111Z,27.11
2019-05-23T15:21:17.343Z,26.91
2019-05-23T15:24:04.452Z,27.47
2019-05-23T15:26:51.587Z,27.34
2019-05-23T15:29:38.371Z,24.44
2019-05-23T15:32:25.457Z,25.80
2019-05-23T15:35:12.403Z,25.80
2019-05-23T15:38:02.416Z,25.77
2019-05-23T15:40:49.536Z,22.13
2019-05-23T15:43:37.342Z,24.47
2019-05-23T15:46:24.357Z,24.12
2019-05-23T15:49:11.022Z,24.79
2019-05-23T15:52:10.525Z,24.68
2019-05-23T15:54:57.338Z,25.31
2019-05-23T15:57:50.615Z,25.87
2019-05-23T16:00:46.735Z,25.66
2019-05-23T16:03:33.868Z,26.36
2019-05-23T16:06:24.165Z,26.34
2019-05-23T16:09:28.795Z,26.02
2019-05-23T16:12:01.341Z,26.07
2019-05-23T16:14:48.575Z,26.08
2019-05-23T16:17:35.644Z,24.79
2019-05-23T16:20:22.660Z,25.04
2019-05-23T16:23:09.794Z,25.56
2019-05-23T16:25:57.103Z,25.04
2019-05-23T16:28:44.321Z,25.20
2019-05-23T16:31:31.748Z,25.34
2019-05-23T16:34:18.897Z,25.63
2019-05-23T16:37:05.770Z,25.77
2019-05-23T16:39:52.911Z,25.84
2019-05-23T16:42:40.043Z,26.10
2019-05-23T16:45:26.997Z,26.49
2019-05-23T16:48:14.167Z,26.69
2019-05-23T16:51:01.329Z,26.04
2019-05-23T16:53:48.512Z,25.89
2019-05-23T16:56:38.079Z,21.07
2019-05-23T16:59:30.931Z,24.04
2019-05-23T17:02:17.983Z,25.03
2019-05-23T17:05:09.814Z,25.40
2019-05-23T17:07:51.954Z,25.77
2019-05-23T17:10:41.305Z,26.64
2019-05-23T17:13:29.180Z,27.54
2019-05-23T17:16:30.092Z,27.97
2019-05-23T17:19:18.324Z,28.65
2019-05-23T17:22:20.752Z,28.70
2019-05-23T17:25:19.701Z,28.11
2019-05-23T17:28:12.846Z,27.58
2019-05-23T17:30:59.704Z,27.59
2019-05-23T17:33:47.068Z,22.31
2019-05-23T17:36:34.214Z,25.07
2019-05-23T17:39:21.510Z,25.49
2019-05-23T17:42:09.651Z,25.58
2019-05-23T17:44:56.481Z,25.38
2019-05-23T17:47:43.385Z,25.54
2019-05-23T17:50:34.369Z,25.91
2019-05-23T17:53:17.689Z,26.40
2019-05-23T17:56:04.447Z,27.03
2019-05-23T17:58:52.721Z,24.47
2019-05-23T18:01:40.119Z,27.69
2019-05-23T18:04:26.824Z,28.11
2019-05-23T18:07:13.761Z,32.06
2019-05-23T18:10:01.481Z,33.35
2019-05-23T18:12:48.518Z,34.38
2019-05-23T18:15:35.203Z,35.89
2019-05-23T18:18:25.901Z,36.93
2019-05-23T18:21:12.853Z,38.32
2019-05-23T18:24:00.258Z,39.20
2019-05-23T18:26:57.639Z,39.80
2019-05-23T18:29:44.680Z,40.89
2019-05-23T18:32:31.918Z,40.95
2019-05-23T18:35:19.795Z,43.21
2019-05-23T18:38:06.768Z,44.19
2019-05-23T18:41:09.583Z,44.58
2019-05-23T18:44:03.465Z,45.01
2019-05-23T18:46:53.840Z,45.29
2019-05-23T18:49:43.716Z,45.30
2019-05-23T18:52:30.309Z,45.84
2019-05-23T18:55:17.098Z,46.14
2019-05-23T18:58:04.702Z,46.61
2019-05-23T19:04:00.251Z,46.98
2019-05-23T19:06:48.181Z,47.24
2019-05-23T19:09:35.518Z,47.01
2019-05-23T19:12:22.263Z,48.82
2019-05-23T19:15:09.735Z,47.87
2019-05-23T19:17:56.560Z,49.13
2019-05-23T19:20:43.537Z,49.34
2019-05-23T19:23:30.591Z,49.68
2019-05-23T19:26:17.732Z,49.62
2019-05-23T19:29:07.619Z,49.94
2019-05-23T19:31:54.479Z,50.79
2019-05-23T19:34:41.506Z,51.06
2019-05-23T19:37:28.532Z,51.51
2019-05-23T19:40:15.562Z,52.02
2019-05-23T19:43:02.645Z,52.37
2019-05-23T19:45:49.848Z,52.85
2019-05-23T19:48:37.398Z,52.23
2019-05-23T19:51:24.186Z,53.42
2019-05-23T19:54:11.111Z,53.92
2019-05-23T19:57:12.514Z,54.19
2019-05-23T19:59:59.276Z,54.48
2019-05-23T20:02:55.105Z,54.80
2019-05-23T20:05:50.057Z,55.09
2019-05-23T20:08:38.196Z,55.19
2019-05-23T20:11:26.026Z,55.45
2019-05-23T20:14:12.775Z,55.54
2019-05-23T20:17:00.026Z,55.75
2019-05-23T20:19:50.265Z,56.08
2019-05-23T20:22:34.752Z,56.43
2019-05-23T20:25:21.522Z,56.50
2019-05-23T20:28:08.287Z,56.96
2019-05-23T20:30:55.016Z,57.15
2019-05-23T20:33:41.958Z,56.67
2019-05-23T20:36:29.264Z,57.72
2019-05-23T20:39:16.296Z,56.84
2019-05-23T20:42:11.579Z,58.26
2019-05-23T20:44:50.031Z,57.01
2019-05-23T20:47:44.071Z,58.40
2019-05-23T20:50:38.481Z,57.49
2019-05-23T20:53:25.452Z,58.97
2019-05-23T20:56:12.192Z,59.19
2019-05-23T20:58:59.321Z,59.06
2019-05-23T21:01:46.114Z,57.84
2019-05-23T21:04:33.298Z,59.16
2019-05-23T21:07:20.637Z,60.11
2019-05-23T21:10:07.335Z,59.95
2019-05-23T21:12:54.412Z,60.41
2019-05-23T21:15:41.628Z,60.11
2019-05-23T21:18:28.988Z,59.06
2019-05-23T21:21:15.786Z,60.49
2019-05-23T21:24:05.820Z,60.82
2019-05-23T21:26:53.321Z,60.91
2019-05-23T21:29:42.994Z,61.05
2019-05-23T21:35:36.230Z,61.42
2019-05-23T21:38:23.250Z,61.52
2019-05-23T21:41:10.752Z,61.55
2019-05-23T21:43:57.821Z,61.57
2019-05-23T21:46:44.777Z,62.12
2019-05-23T21:49:32.141Z,61.89
2019-05-23T21:52:19.237Z,62.30
2019-05-23T21:55:08.994Z,62.22
2019-05-23T22:01:12.473Z,62.57
2019-05-23T22:04:11.451Z,62.57
2019-05-23T22:06:58.748Z,62.81
2019-05-23T22:09:45.970Z,63.40
2019-05-23T22:12:32.737Z,63.83
2019-05-23T22:15:19.645Z,63.68
2019-05-23T22:21:12.297Z,64.33
2019-05-23T22:23:58.928Z,63.56
2019-05-23T22:26:46.149Z,64.19
2019-05-23T22:29:33.822Z,64.11
2019-05-23T22:32:24.057Z,64.22
2019-05-23T22:35:11.124Z,64.48
2019-05-23T22:37:57.777Z,64.42
2019-05-23T22:40:44.663Z,64.76
2019-05-23T22:43:31.417Z,64.83
2019-05-23T22:46:18.824Z,64.78
2019-05-23T22:49:05.660Z,64.84
2019-05-23T22:51:52.743Z,64.87
2019-05-23T22:54:39.600Z,65.11
2019-05-23T22:57:26.582Z,65.40
2019-05-23T23:00:13.247Z,65.83
2019-05-23T23:06:06.121Z,65.25
2019-05-23T23:08:54.067Z,66.96
2019-05-23T23:11:41.121Z,66.31
2019-05-23T23:14:27.805Z,65.82
2019-05-23T23:17:28.905Z,65.78
2019-05-23T23:20:15.957Z,64.88
2019-05-23T23:23:03.236Z,65.74
2019-05-23T23:25:50.720Z,64.23
2019-05-23T23:31:43.844Z,65.74
2019-05-23T23:37:38.441Z,66.23
2019-05-23T23:40:25.542Z,66.06
2019-05-23T23:43:13.109Z,66.19
2019-05-23T23:46:18.456Z,66.31
2019-05-23T23:49:24.137Z,66.35
2019-05-23T23:52:29.098Z,65.12
2019-05-23T23:55:35.948Z,66.60
2019-05-23T23:58:22.472Z,66.84
